Time;durP1;ratioP1;P1;durP2;ratioP2;P2;SDS_P1;SDS_P2;PMS_P1;PMS_P2;Temp;Humidity;BMP_temperature;BMP_pressure;BME280_temperature;BME280_humidity;BME280_pressure;Samples;Min_cycle;Max_cycle;Signal;HPM_P1;HPM_P2
2023/01/21 00:04:01;;;;;;;14.70;13.30;;;2.30;92.80;;;;;;10523775;28;20231;-78
2023/01/21 00:09:05;;;;;;;14.40;12.90;;;2.50;92.30;;;;;;10500197;28;20239;-79
2023/01/21 00:14:07;;;;;;;13.53;12.23;;;2.60;92.80;;;;;;10528500;28;20270;-79
2023/01/21 00:19:09;;;;;;;15.83;14.37;;;2.50;92.60;;;;;;10555966;28;20566;-77
2023/01/21 00:24:12;;;;;;;16.77;14.43;;;2.40;93.10;;;;;;10527915;28;20286;-79
2023/01/21 00:29:14;;;;;;;14.70;13.30;;;2.30;93.40;;;;;;10506454;28;20200;-77
2023/01/21 00:34:16;;;;;;;12.40;10.50;;;2.30;93.50;;;;;;10526098;28;20219;-79
2023/01/21 00:39:20;;;;;;;17.23;15.53;;;2.30;93.50;;;;;;10563305;28;20629;-79
2023/01/21 00:44:22;;;;;;;15.10;13.47;;;2.20;93.60;;;;;;10552924;28;20259;-80
2023/01/21 00:49:24;;;;;;;16.57;13.60;;;2.20;94.20;;;;;;10570257;28;20230;-79
2023/01/21 00:54:30;;;;;;;15.63;13.65;;;2.20;93.90;;;;;;10537719;28;20231;-79
2023/01/21 00:59:32;;;;;;;13.97;12.70;;;2.40;93.60;;;;;;10529031;28;20204;-79
2023/01/21 01:04:34;;;;;;;14.23;12.13;;;2.40;93.50;;;;;;10529176;28;20250;-80
2023/01/21 01:09:37;;;;;;;14.20;12.80;;;2.40;94.30;;;;;;10567601;28;20211;-79
2023/01/21 01:14:39;;;;;;;15.03;13.50;;;2.30;94.00;;;;;;10559026;28;20214;-78
2023/01/21 01:19:41;;;;;;;15.17;13.60;;;2.40;94.10;;;;;;10551718;28;20279;-79
2023/01/21 01:24:59;;;;;;;14.40;13.10;;;2.40;93.10;;;;;;10543389;28;20314;-79
2023/01/21 01:30:01;;;;;;;17.10;12.90;;;2.40;92.70;;;;;;10534093;28;20293;-79
2023/01/21 01:35:03;;;;;;;18.30;15.13;;;2.30;92.80;;;;;;10504742;28;20291;-79
2023/01/21 01:40:10;;;;;;;14.33;13.00;;;2.20;93.50;;;;;;10527356;28;20196;-78
2023/01/21 01:45:19;;;;;;;16.07;14.37;;;2.10;93.90;;;;;;10546073;28;20713;-79
2023/01/21 01:50:21;;;;;;;15.53;14.03;;;2.10;93.70;;;;;;10545693;28;20270;-79
2023/01/21 01:55:24;;;;;;;16.23;14.63;;;2.10;94.00;;;;;;10531846;28;20216;-79
2023/01/21 02:00:27;;;;;;;15.60;14.00;;;2.00;94.50;;;;;;10507823;28;20211;-79
2023/01/21 02:05:29;;;;;;;15.27;13.77;;;2.00;93.70;;;;;;10522507;28;20230;-79
2023/01/21 02:10:33;;;;;;;16.30;13.77;;;2.10;93.40;;;;;;10527360;28;20207;-79
2023/01/21 02:15:46;;;;;;;14.87;13.43;;;2.00;93.10;;;;;;10525717;28;20286;-80
2023/01/21 02:21:24;;;;;;;14.13;12.47;;;1.90;93.50;;;;;;10528962;28;20199;-79
2023/01/21 02:27:01;;;;;;;15.03;13.50;;;1.80;93.10;;;;;;10543502;28;20243;-80
2023/01/21 02:32:36;;;;;;;13.43;12.15;;;1.70;93.10;;;;;;10505783;28;20198;-79
2023/01/21 02:37:46;;;;;;;15.73;13.27;;;1.80;92.70;;;;;;10521597;28;20223;-80
2023/01/21 02:42:55;;;;;;;14.17;12.77;;;1.70;93.10;;;;;;10547887;28;20616;-80
2023/01/21 02:48:04;;;;;;;14.60;13.13;;;1.40;93.20;;;;;;10510217;28;20217;-79
2023/01/21 02:53:24;;;;;;;15.60;13.88;;;1.20;93.20;;;;;;10540568;28;20192;-77
2023/01/21 02:58:31;;;;;;;14.20;12.80;;;1.20;92.90;;;;;;10503187;28;20234;-79
2023/01/21 03:03:47;;;;;;;12.60;11.50;;;1.30;93.00;;;;;;10541228;28;20216;-79
2023/01/21 03:08:56;;;;;;;12.67;11.57;;;1.10;93.30;;;;;;10500680;28;20192;-79
2023/01/21 03:19:25;;;;;;;10.47;9.47;;;0.90;93.40;;;;;;10502438;28;21027;-79
2023/01/21 03:24:29;;;;;;;11.17;10.10;;;0.80;92.80;;;;;;10539733;28;20215;-79
2023/01/21 03:29:33;;;;;;;10.27;9.27;;;0.70;93.60;;;;;;10500756;28;20203;-79
2023/01/21 03:34:41;;;;;;;10.90;9.63;;;0.60;93.20;;;;;;10466158;28;20216;-80
2023/01/21 03:39:52;;;;;;;9.07;8.27;;;0.60;93.90;;;;;;10544710;28;20223;-79
2023/01/21 03:44:55;;;;;;;9.63;8.73;;;0.60;93.90;;;;;;10541481;28;20307;-80
2023/01/21 03:50:00;;;;;;;9.18;8.35;;;0.70;93.70;;;;;;10489574;28;20202;-78
2023/01/21 03:55:05;;;;;;;9.97;8.00;;;0.80;93.40;;;;;;10530349;28;20231;-79
2023/01/21 04:00:09;;;;;;;9.30;8.40;;;0.80;93.00;;;;;;10531880;28;20199;-78
2023/01/21 04:05:13;;;;;;;9.43;8.70;;;0.90;92.90;;;;;;10506489;28;20502;-80
2023/01/21 04:10:17;;;;;;;9.40;8.60;;;0.80;92.90;;;;;;10526821;28;20218;-79
2023/01/21 04:15:19;;;;;;;10.23;8.63;;;0.70;93.50;;;;;;10529172;28;20725;-79
2023/01/21 04:20:21;;;;;;;9.57;8.77;;;0.60;94.10;;;;;;10529219;28;20236;-79
2023/01/21 04:25:24;;;;;;;9.37;8.43;;;0.80;93.80;;;;;;10526372;28;20675;-77
2023/01/21 04:30:26;;;;;;;8.70;7.83;;;0.80;93.40;;;;;;10512034;28;20246;-79
2023/01/21 04:35:28;;;;;;;8.63;7.83;;;0.70;93.60;;;;;;10488732;28;20275;-79
2023/01/21 04:40:32;;;;;;;7.70;7.07;;;0.60;93.90;;;;;;10546456;28;20652;-79
2023/01/21 04:45:34;;;;;;;7.00;6.43;;;0.80;94.40;;;;;;10511960;28;20256;-80
2023/01/21 04:50:36;;;;;;;7.00;6.50;;;0.80;94.20;;;;;;10511265;28;20200;-78
2023/01/21 04:55:40;;;;;;;6.30;5.80;;;0.80;93.80;;;;;;10493062;28;20232;-79
2023/01/21 05:00:42;;;;;;;7.83;7.00;;;0.70;93.50;;;;;;10503870;28;20193;-78
2023/01/21 05:05:44;;;;;;;6.37;5.97;;;0.60;93.70;;;;;;10526989;28;20254;-78
2023/01/21 05:10:47;;;;;;;6.93;6.43;;;0.60;94.30;;;;;;10490040;28;20288;-79
2023/01/21 05:15:49;;;;;;;7.83;7.20;;;0.60;94.10;;;;;;10527898;28;20269;-78
2023/01/21 05:20:51;;;;;;;7.43;6.83;;;0.50;94.10;;;;;;10528393;28;20597;-80
2023/01/21 05:25:55;;;;;;;7.70;7.10;;;0.50;93.90;;;;;;10540020;28;20695;-79
2023/01/21 05:31:01;;;;;;;8.47;7.60;;;0.40;94.40;;;;;;10514809;28;20212;-80
2023/01/21 05:36:04;;;;;;;9.80;8.73;;;0.40;94.30;;;;;;10544049;28;20290;-79
2023/01/21 05:41:08;;;;;;;10.43;9.33;;;0.60;94.30;;;;;;10546436;28;20708;-79
2023/01/21 05:46:10;;;;;;;11.37;9.80;;;0.70;94.20;;;;;;10505906;28;21076;-78
2023/01/21 05:51:12;;;;;;;12.52;11.40;;;0.70;93.40;;;;;;10542554;28;20689;-78
2023/01/21 05:56:15;;;;;;;10.80;9.83;;;0.70;93.00;;;;;;10502936;28;20304;-79
2023/01/21 06:01:17;;;;;;;13.37;11.83;;;0.60;93.40;;;;;;10520995;28;20204;-79
2023/01/21 06:06:21;;;;;;;13.67;12.30;;;0.40;93.60;;;;;;10543250;28;20223;-78
2023/01/21 06:11:24;;;;;;;17.60;13.57;;;0.20;94.50;;;;;;10483136;28;20206;-78
2023/01/21 06:16:26;;;;;;;15.87;12.30;;;0.20;94.90;;;;;;10541549;28;20214;-78
2023/01/21 06:21:28;;;;;;;16.97;15.30;;;0.30;94.80;;;;;;10539089;28;20207;-79
2023/01/21 06:26:32;;;;;;;23.07;18.10;;;0.40;96.00;;;;;;10539941;28;20255;-79
2023/01/21 06:31:35;;;;;;;17.20;15.50;;;0.60;97.30;;;;;;10525469;28;20773;-76
2023/01/21 06:36:37;;;;;;;18.30;16.60;;;0.90;97.50;;;;;;10521277;28;20216;-77
2023/01/21 06:41:40;;;;;;;20.37;17.67;;;1.10;97.20;;;;;;10517611;28;20228;-80
2023/01/21 06:46:42;;;;;;;20.80;18.70;;;1.30;96.90;;;;;;10490587;28;20603;-80
2023/01/21 06:51:44;;;;;;;23.30;20.87;;;1.40;96.50;;;;;;10525262;28;20203;-79
2023/01/21 06:56:48;;;;;;;24.53;22.07;;;1.50;97.00;;;;;;10541150;28;20219;-79
2023/01/21 07:01:50;;;;;;;24.93;22.27;;;1.50;96.70;;;;;;10497908;28;20651;-80
2023/01/21 07:06:52;;;;;;;25.67;23.07;;;1.60;96.40;;;;;;10517038;28;20259;-79
2023/01/21 07:11:55;;;;;;;26.13;23.50;;;1.70;96.60;;;;;;10503019;28;20660;-79
2023/01/21 07:16:57;;;;;;;25.93;23.10;;;1.70;96.30;;;;;;10518666;28;20230;-79
2023/01/21 07:22:00;;;;;;;27.93;24.10;;;1.80;96.40;;;;;;10516843;28;20196;-79
2023/01/21 07:27:05;;;;;;;29.63;26.07;;;1.80;96.20;;;;;;10533549;28;20367;-79
2023/01/21 07:32:07;;;;;;;27.57;24.83;;;1.90;96.00;;;;;;10496387;28;20733;-79
2023/01/21 07:37:09;;;;;;;28.47;25.53;;;1.90;96.00;;;;;;10512244;28;20212;-77
2023/01/21 07:42:13;;;;;;;33.07;25.40;;;1.90;95.40;;;;;;10527164;28;20271;-79
2023/01/21 07:47:15;;;;;;;29.30;25.40;;;1.90;95.50;;;;;;10518353;28;20213;-79
2023/01/21 07:52:17;;;;;;;27.83;24.88;;;2.10;95.80;;;;;;10524396;28;20649;-78
2023/01/21 07:57:20;;;;;;;29.63;26.43;;;2.30;95.40;;;;;;10538091;22;20782;-80
2023/01/21 08:02:22;;;;;;;28.10;24.97;;;2.30;95.10;;;;;;10538174;28;20274;-82
2023/01/21 08:07:24;;;;;;;28.00;25.10;;;2.20;95.00;;;;;;10541649;28;20215;-84
2023/01/21 08:12:28;;;;;;;26.87;23.97;;;2.10;95.30;;;;;;10543163;28;20200;-85
2023/01/21 08:17:30;;;;;;;27.80;24.83;;;2.10;95.30;;;;;;10556348;28;20280;-82
2023/01/21 08:22:33;;;;;;;28.80;25.43;;;2.10;95.30;;;;;;10550737;28;20215;-81
2023/01/21 08:27:38;;;;;;;27.73;24.80;;;2.10;94.80;;;;;;10566272;28;20225;-84
2023/01/21 08:32:40;;;;;;;30.43;26.13;;;2.30;95.50;;;;;;10551421;28;20203;-85
2023/01/21 08:37:43;;;;;;;27.80;23.73;;;2.40;94.70;;;;;;10538606;28;20307;-81
2023/01/21 08:42:46;;;;;;;28.10;24.47;;;2.30;95.10;;;;;;10582834;28;20274;-80
2023/01/21 08:47:49;;;;;;;33.47;26.93;;;2.30;95.20;;;;;;10550343;28;20694;-83
2023/01/21 08:52:52;;;;;;;33.33;29.23;;;2.30;95.60;;;;;;10582906;28;20206;-83
2023/01/21 08:57:57;;;;;;;31.07;25.73;;;2.40;95.60;;;;;;10565299;28;20277;-83
2023/01/21 09:02:59;;;;;;;28.90;24.50;;;2.40;95.10;;;;;;10551445;28;20208;-82
2023/01/21 09:08:01;;;;;;;81.40;61.87;;;2.50;94.80;;;;;;10557322;28;20244;-82
2023/01/21 09:13:05;;;;;;;36.03;29.87;;;2.70;95.40;;;;;;10563655;28;20321;-83
2023/01/21 09:18:07;;;;;;;28.30;25.03;;;2.80;94.90;;;;;;10568667;28;20215;-81
2023/01/21 09:23:23;;;;;;;31.47;24.40;;;2.90;94.80;;;;;;10559856;28;20278;-82
2023/01/21 09:28:27;;;;;;;28.97;24.33;;;2.90;95.00;;;;;;10536429;28;20234;-82
2023/01/21 09:33:30;;;;;;;27.20;23.60;;;2.90;95.00;;;;;;10531056;28;20531;-82
2023/01/21 09:38:33;;;;;;;29.47;24.97;;;2.90;94.40;;;;;;10575164;28;20540;-82
2023/01/21 09:43:42;;;;;;;27.47;23.80;;;3.00;94.30;;;;;;10566418;28;20774;-82
2023/01/21 09:48:47;;;;;;;26.47;22.70;;;3.00;94.60;;;;;;10566241;28;20273;-82
2023/01/21 09:53:51;;;;;;;25.50;22.30;;;3.00;94.80;;;;;;10557159;28;20251;-81
2023/01/21 09:59:06;;;;;;;25.70;21.23;;;3.10;94.60;;;;;;10547261;28;20327;-80
2023/01/21 10:04:28;;;;;;;25.87;21.50;;;3.10;94.60;;;;;;10548124;28;20224;-82
2023/01/21 10:09:45;;;;;;;32.40;23.73;;;3.20;94.60;;;;;;10562038;28;20218;-82
2023/01/21 10:15:05;;;;;;;27.40;23.40;;;3.30;94.40;;;;;;10582210;28;20215;-82
2023/01/21 10:20:14;;;;;;;26.43;23.63;;;3.30;94.40;;;;;;10522902;28;20231;-82
2023/01/21 10:25:22;;;;;;;28.70;23.80;;;3.30;94.60;;;;;;10552273;28;20251;-82
2023/01/21 10:30:32;;;;;;;28.00;23.03;;;3.30;94.80;;;;;;10560282;28;20197;-82
2023/01/21 10:35:46;;;;;;;23.87;20.77;;;3.30;95.10;;;;;;10534688;28;20216;-82
2023/01/21 10:40:56;;;;;;;22.10;19.17;;;3.30;95.10;;;;;;10570082;28;20279;-82
2023/01/21 10:46:08;;;;;;;21.70;19.50;;;3.30;94.80;;;;;;10531935;28;20234;-82
2023/01/21 10:51:16;;;;;;;23.43;20.97;;;3.30;95.00;;;;;;10558458;28;20663;-81
2023/01/21 10:56:28;;;;;;;23.53;21.13;;;3.30;94.50;;;;;;10544806;28;20219;-81
2023/01/21 11:01:35;;;;;;;27.13;21.90;;;3.30;95.40;;;;;;10555741;28;20204;-82
2023/01/21 11:06:40;;;;;;;20.50;16.90;;;3.40;95.10;;;;;;10539435;28;20648;-81
2023/01/21 11:11:42;;;;;;;28.13;22.53;;;3.40;95.40;;;;;;10531406;28;20206;-80
2023/01/21 11:16:47;;;;;;;30.40;20.88;;;3.60;95.50;;;;;;10533914;28;20253;-82
2023/01/21 11:22:02;;;;;;;24.20;20.50;;;3.80;94.70;;;;;;10546519;28;20200;-82
2023/01/21 11:27:05;;;;;;;22.80;20.30;;;3.80;94.50;;;;;;10540412;28;20244;-81
2023/01/21 11:32:17;;;;;;;25.42;21.90;;;3.70;94.60;;;;;;10574153;28;20198;-81
2023/01/21 11:37:23;;;;;;;27.97;22.63;;;3.70;94.60;;;;;;10539189;28;20207;-80
2023/01/21 11:42:26;;;;;;;23.40;20.80;;;3.70;95.00;;;;;;10520677;28;20192;-82
2023/01/21 11:47:35;;;;;;;23.10;20.40;;;3.80;95.00;;;;;;10576200;28;20481;-82
2023/01/21 11:52:37;;;;;;;22.00;19.80;;;3.70;95.00;;;;;;10570646;28;20199;-80
2023/01/21 11:57:40;;;;;;;22.90;20.40;;;3.60;95.30;;;;;;10540918;28;20223;-81
2023/01/21 12:02:47;;;;;;;23.30;19.90;;;3.60;95.40;;;;;;10552419;28;20199;-79
2023/01/21 12:07:51;;;;;;;20.13;18.13;;;3.70;95.30;;;;;;10554410;28;20220;-79
2023/01/21 12:13:11;;;;;;;22.37;20.17;;;3.80;94.90;;;;;;10555949;28;20256;-80
2023/01/21 12:18:30;;;;;;;22.17;19.87;;;3.70;95.10;;;;;;10556337;28;20237;-80
2023/01/21 12:23:49;;;;;;;21.87;19.27;;;3.60;95.40;;;;;;10569040;28;20207;-79
2023/01/21 12:29:05;;;;;;;24.30;19.57;;;3.60;95.30;;;;;;10546099;28;20472;-78
2023/01/21 12:34:12;;;;;;;28.70;19.97;;;3.60;95.70;;;;;;10570069;28;20180;-78
2023/01/21 12:39:21;;;;;;;30.07;19.60;;;3.60;95.50;;;;;;10566917;28;20214;-79
2023/01/21 12:44:29;;;;;;;24.08;20.52;;;3.60;95.30;;;;;;10559292;28;20230;-78
2023/01/21 12:49:54;;;;;;;21.33;19.03;;;3.70;95.00;;;;;;10559818;28;20683;-79
2023/01/21 12:55:06;;;;;;;23.30;18.80;;;3.70;95.10;;;;;;10551171;28;20251;-78
2023/01/21 13:00:19;;;;;;;20.50;18.10;;;3.70;95.50;;;;;;10554122;28;20203;-79
2023/01/21 13:05:30;;;;;;;20.50;18.40;;;3.60;95.40;;;;;;10565163;28;20211;-79
2023/01/21 13:10:37;;;;;;;22.93;18.83;;;3.60;95.10;;;;;;10581906;28;20207;-79
2023/01/21 13:15:41;;;;;;;21.30;18.67;;;3.60;95.40;;;;;;10575591;28;20375;-79
2023/01/21 13:20:51;;;;;;;19.53;17.53;;;3.50;95.60;;;;;;10548529;28;20567;-80
2023/01/21 13:26:00;;;;;;;19.97;17.80;;;3.50;95.90;;;;;;10579197;28;20288;-80
2023/01/21 13:31:12;;;;;;;19.53;17.40;;;3.50;96.20;;;;;;10529474;28;20222;-79
2023/01/21 13:36:29;;;;;;;22.03;19.63;;;3.50;96.60;;;;;;10550332;28;21068;-79
2023/01/21 13:41:44;;;;;;;22.13;19.83;;;3.50;97.10;;;;;;10564580;28;20581;-79
2023/01/21 13:46:56;;;;;;;23.47;18.97;;;3.50;97.10;;;;;;10584829;28;20439;-80
2023/01/21 13:52:05;;;;;;;22.03;19.33;;;3.50;97.40;;;;;;10533961;28;20229;-78
2023/01/21 13:57:21;;;;;;;20.33;18.23;;;3.50;97.60;;;;;;10546170;28;20354;-79
2023/01/21 14:02:29;;;;;;;25.27;19.77;;;3.50;97.70;;;;;;10561880;28;20198;-77
2023/01/21 14:07:38;;;;;;;21.33;19.20;;;3.50;98.20;;;;;;10560543;28;20292;-77
2023/01/21 14:13:09;;;;;;;21.37;19.20;;;3.40;98.30;;;;;;10537461;28;20227;-77
2023/01/21 14:18:29;;;;;;;21.50;19.20;;;3.40;98.60;;;;;;10537267;28;20231;-79
2023/01/21 14:24:09;;;;;;;23.33;18.67;;;3.40;98.50;;;;;;10567737;28;20286;-79
2023/01/21 14:29:18;;;;;;;20.70;17.90;;;3.40;98.70;;;;;;10461260;28;20232;-78
2023/01/21 14:34:24;;;;;;;19.27;17.17;;;3.40;98.50;;;;;;10571310;28;20187;-79
2023/01/21 14:39:41;;;;;;;18.97;17.00;;;3.40;98.70;;;;;;10553347;28;20211;-77
2023/01/21 14:45:01;;;;;;;20.27;18.17;;;3.40;98.00;;;;;;10539405;28;20782;-78
2023/01/21 14:50:03;;;;;;;21.73;17.10;;;3.60;98.00;;;;;;10556406;28;20201;-78
2023/01/21 14:55:25;;;;;;;21.03;18.83;;;3.60;98.00;;;;;;10534078;28;20237;-79
2023/01/21 15:00:31;;;;;;;19.75;17.70;;;3.50;97.20;;;;;;10539144;28;20214;-78
2023/01/21 15:05:35;;;;;;;19.67;17.50;;;3.60;97.50;;;;;;10595026;28;20218;-78
2023/01/21 15:10:40;;;;;;;18.37;16.50;;;3.60;97.10;;;;;;10598304;28;20195;-81
2023/01/21 15:16:04;;;;;;;19.97;16.87;;;3.50;97.30;;;;;;10602178;28;20231;-80
2023/01/21 15:21:34;;;;;;;19.15;17.00;;;3.50;97.70;;;;;;10559390;28;20199;-81
2023/01/21 15:26:41;;;;;;;18.35;16.45;;;3.60;97.20;;;;;;10538180;28;20842;-81
2023/01/21 15:31:44;;;;;;;19.00;17.00;;;3.80;97.70;;;;;;10565073;28;20187;-81
2023/01/21 15:36:51;;;;;;;19.53;16.70;;;3.80;97.20;;;;;;10547503;28;20218;-80
2023/01/21 15:42:09;;;;;;;18.77;16.20;;;3.60;97.00;;;;;;10549750;28;20191;-80
2023/01/21 15:47:28;;;;;;;19.30;16.60;;;3.50;97.70;;;;;;10557603;28;20638;-79
2023/01/21 15:52:44;;;;;;;16.70;14.57;;;3.50;97.70;;;;;;10552357;28;20613;-78
2023/01/21 15:57:57;;;;;;;17.13;14.93;;;3.60;97.50;;;;;;10542326;28;20249;-78
2023/01/21 16:03:10;;;;;;;17.73;15.03;;;3.60;97.10;;;;;;10585832;28;20696;-78
2023/01/21 16:08:26;;;;;;;15.90;14.03;;;3.50;97.40;;;;;;10556531;28;20702;-78
2023/01/21 16:13:46;;;;;;;16.30;14.17;;;3.50;97.70;;;;;;10553693;28;20291;-79
2023/01/21 16:18:53;;;;;;;16.87;14.40;;;3.40;97.60;;;;;;10559725;28;20560;-79
2023/01/21 16:23:59;;;;;;;15.63;13.70;;;3.50;97.80;;;;;;10572308;28;20215;-78
2023/01/21 16:29:09;;;;;;;16.87;14.83;;;3.50;97.50;;;;;;10556410;28;20245;-79
2023/01/21 16:34:13;;;;;;;16.33;14.63;;;3.50;97.40;;;;;;10552898;28;20608;-79
2023/01/21 16:39:21;;;;;;;17.30;15.10;;;3.50;96.80;;;;;;10542507;28;20199;-78
2023/01/21 16:44:28;;;;;;;15.80;13.30;;;3.50;96.50;;;;;;10581419;28;20206;-79
2023/01/21 16:49:35;;;;;;;16.13;13.73;;;3.50;96.40;;;;;;10570182;28;20257;-78
2023/01/21 16:54:50;;;;;;;15.20;13.60;;;3.50;97.00;;;;;;10564871;28;20230;-81
2023/01/21 16:59:54;;;;;;;14.25;12.73;;;3.40;96.70;;;;;;10537377;28;20198;-81
2023/01/21 17:04:59;;;;;;;14.80;13.30;;;3.60;96.80;;;;;;10572185;28;20218;-81
2023/01/21 17:10:05;;;;;;;14.30;12.90;;;3.60;96.70;;;;;;10595483;28;20199;-80
2023/01/21 17:15:18;;;;;;;15.00;13.23;;;3.70;96.90;;;;;;10573484;28;20212;-78
2023/01/21 17:20:49;;;;;;;14.35;12.95;;;3.70;97.20;;;;;;10552704;28;20192;-78
2023/01/21 17:25:58;;;;;;;15.20;13.60;;;3.80;97.10;;;;;;10530511;28;20235;-77
2023/01/21 17:31:22;;;;;;;15.20;13.20;;;3.70;97.10;;;;;;10531108;28;20199;-79
2023/01/21 17:36:31;;;;;;;16.40;14.70;;;3.70;97.10;;;;;;10549907;28;20215;-77
2023/01/21 17:41:36;;;;;;;14.75;13.18;;;3.60;96.90;;;;;;10559698;28;20188;-78
2023/01/21 17:46:44;;;;;;;17.08;13.02;;;3.70;97.00;;;;;;10551403;28;20214;-78
2023/01/21 17:51:46;;;;;;;14.93;13.40;;;3.80;96.90;;;;;;10527319;28;20317;-78
2023/01/21 17:56:51;;;;;;;16.27;13.40;;;4.00;97.10;;;;;;10245082;28;8511323;-78
2023/01/21 18:01:55;;;;;;;13.33;11.93;;;3.90;96.90;;;;;;10574386;28;20210;-78
2023/01/21 18:07:05;;;;;;;15.63;14.03;;;3.80;96.80;;;;;;10562976;28;20252;-78
2023/01/21 18:12:10;;;;;;;14.60;13.10;;;3.80;97.20;;;;;;10576981;28;20194;-80
2023/01/21 18:17:17;;;;;;;14.47;12.97;;;3.80;97.10;;;;;;10585183;28;20208;-78
2023/01/21 18:22:22;;;;;;;16.13;14.52;;;3.90;97.20;;;;;;10561733;28;20729;-80
2023/01/21 18:27:26;;;;;;;15.37;13.77;;;3.90;97.20;;;;;;10548313;28;20239;-80
2023/01/21 18:32:30;;;;;;;17.57;15.73;;;3.90;97.60;;;;;;10591058;28;20204;-81
2023/01/21 18:37:33;;;;;;;15.60;14.10;;;3.80;97.50;;;;;;10542497;28;20265;-79
2023/01/21 18:42:35;;;;;;;15.73;14.17;;;3.80;98.00;;;;;;10554861;28;20266;-80
2023/01/21 18:47:39;;;;;;;18.07;16.17;;;3.90;98.40;;;;;;10520387;28;20486;-81
2023/01/21 18:52:41;;;;;;;17.47;15.63;;;3.90;97.80;;;;;;10567451;28;20226;-81
2023/01/21 18:57:44;;;;;;;20.90;17.50;;;3.80;98.70;;;;;;10529444;28;20950;-79
2023/01/21 19:02:48;;;;;;;19.75;17.33;;;3.60;98.40;;;;;;10550134;28;20285;-80
2023/01/21 19:07:50;;;;;;;20.65;16.42;;;3.60;98.90;;;;;;10539003;28;20282;-81
2023/01/21 19:12:52;;;;;;;18.40;16.50;;;3.80;98.70;;;;;;10567560;28;20225;-81
2023/01/21 19:17:57;;;;;;;18.90;17.00;;;3.80;98.30;;;;;;10521363;28;20219;-80
2023/01/21 19:22:59;;;;;;;20.10;17.70;;;3.60;98.70;;;;;;10541877;28;20704;-81
2023/01/21 19:28:03;;;;;;;19.20;17.10;;;3.50;98.90;;;;;;10540810;28;20231;-80
2023/01/21 19:33:06;;;;;;;19.43;17.40;;;3.50;98.90;;;;;;10573016;28;20265;-81
2023/01/21 19:38:11;;;;;;;20.93;18.77;;;3.50;98.60;;;;;;10549571;28;20260;-81
2023/01/21 19:43:15;;;;;;;20.17;18.02;;;3.40;98.80;;;;;;10560412;28;20204;-80
2023/01/21 19:48:21;;;;;;;21.07;18.20;;;3.60;98.90;;;;;;10546649;28;20227;-81
2023/01/21 19:53:23;;;;;;;19.97;16.90;;;3.70;98.60;;;;;;10574957;28;20258;-80
2023/01/21 19:58:28;;;;;;;18.97;17.13;;;3.60;98.70;;;;;;10636055;22;20763;-78
2023/01/21 20:03:32;;;;;;;21.90;19.17;;;3.60;98.60;;;;;;10601173;28;20287;-78
2023/01/21 20:08:34;;;;;;;23.40;20.90;;;3.60;98.90;;;;;;10539008;28;20593;-78
2023/01/21 20:13:38;;;;;;;23.60;20.10;;;3.60;98.20;;;;;;10559786;28;20698;-78
2023/01/21 20:18:42;;;;;;;22.83;20.33;;;3.50;98.40;;;;;;10563969;28;20222;-77
2023/01/21 20:23:44;;;;;;;20.60;18.50;;;3.40;99.00;;;;;;10552434;28;20635;-77
2023/01/21 20:28:50;;;;;;;23.27;20.83;;;3.50;98.70;;;;;;10570895;28;20769;-77
2023/01/21 20:33:56;;;;;;;20.93;18.80;;;3.50;99.00;;;;;;10516317;28;20638;-77
2023/01/21 20:38:58;;;;;;;22.80;20.10;;;3.50;98.90;;;;;;10561443;28;20558;-78
2023/01/21 20:44:02;;;;;;;20.60;18.40;;;3.50;99.10;;;;;;10582788;28;20226;-77
2023/01/21 20:49:06;;;;;;;21.58;18.50;;;3.50;99.30;;;;;;10546121;28;20223;-77
2023/01/21 20:54:08;;;;;;;21.07;18.80;;;3.60;99.10;;;;;;10546011;28;20230;-77
2023/01/21 20:59:10;;;;;;;23.47;21.07;;;3.70;99.00;;;;;;10584071;28;20234;-77
2023/01/21 21:04:13;;;;;;;23.70;20.97;;;3.60;99.10;;;;;;10565016;28;20278;-78
2023/01/21 21:09:19;;;;;;;22.70;20.40;;;3.50;99.30;;;;;;10563644;28;20219;-77
2023/01/21 21:14:21;;;;;;;21.83;19.57;;;3.50;99.50;;;;;;10547255;28;20200;-78
2023/01/21 21:19:24;;;;;;;24.87;20.03;;;3.40;99.70;;;;;;10533597;28;20219;-78
2023/01/21 21:24:28;;;;;;;20.67;18.47;;;3.40;99.40;;;;;;10580322;28;20203;-78
2023/01/21 21:29:30;;;;;;;23.67;21.30;;;3.40;99.70;;;;;;10588503;28;20589;-77
2023/01/21 21:34:35;;;;;;;23.03;20.37;;;3.30;99.80;;;;;;10547016;28;20628;-78
2023/01/21 21:39:37;;;;;;;22.58;19.92;;;3.30;99.80;;;;;;10541257;28;20216;-78
2023/01/21 21:44:42;;;;;;;23.57;21.03;;;3.40;99.90;;;;;;10558826;28;20204;-79
2023/01/21 21:49:45;;;;;;;28.13;23.53;;;3.40;99.90;;;;;;10551284;28;20301;-79
2023/01/21 21:54:48;;;;;;;24.40;21.27;;;3.40;99.90;;;;;;10563786;28;20210;-78
2023/01/21 21:59:50;;;;;;;22.67;20.37;;;3.30;99.90;;;;;;10554104;28;20215;-77
2023/01/21 22:04:53;;;;;;;23.27;20.77;;;3.30;99.90;;;;;;10550596;28;20215;-77
2023/01/21 22:09:55;;;;;;;23.07;20.77;;;3.30;99.90;;;;;;10555972;28;20243;-79
2023/01/21 22:14:58;;;;;;;21.90;19.47;;;3.30;99.90;;;;;;10570154;28;20219;-79
2023/01/21 22:20:01;;;;;;;23.53;21.13;;;3.30;99.90;;;;;;10574691;28;20566;-77
2023/01/21 22:25:03;;;;;;;21.97;19.57;;;3.30;99.90;;;;;;10575607;28;20211;-77
2023/01/21 22:30:07;;;;;;;21.80;19.57;;;3.30;99.90;;;;;;10572296;28;20239;-75
2023/01/21 22:35:10;;;;;;;22.70;20.30;;;3.40;99.90;;;;;;10561042;28;20311;-76
2023/01/21 22:40:16;;;;;;;22.93;20.53;;;3.40;99.90;;;;;;10544236;28;20196;-78
2023/01/21 22:45:18;;;;;;;22.53;20.23;;;3.40;99.90;;;;;;10551808;28;20691;-78
2023/01/21 22:50:21;;;;;;;21.97;19.70;;;3.30;99.90;;;;;;10560890;27;20272;-78
2023/01/21 22:55:23;;;;;;;22.63;20.30;;;3.30;99.90;;;;;;10574426;28;20226;-78
2023/01/21 23:00:36;;;;;;;21.43;19.10;;;3.20;99.90;;;;;;10568652;28;20192;-77
2023/01/21 23:05:39;;;;;;;21.50;19.30;;;3.20;99.90;;;;;;10563410;28;20245;-77
2023/01/21 23:10:42;;;;;;;21.37;19.23;;;3.20;99.90;;;;;;10581862;28;20302;-76
2023/01/21 23:15:45;;;;;;;19.80;17.80;;;3.20;99.90;;;;;;10575070;28;20211;-78
2023/01/21 23:20:49;;;;;;;22.20;19.90;;;3.20;99.90;;;;;;10558313;28;20202;-78
2023/01/21 23:25:51;;;;;;;21.90;19.70;;;3.20;99.90;;;;;;10536016;28;20225;-79
2023/01/21 23:30:53;;;;;;;20.53;18.53;;;3.20;99.90;;;;;;10543371;28;20619;-79
2023/01/21 23:35:57;;;;;;;21.30;19.20;;;3.20;99.90;;;;;;10537350;28;20220;-78
2023/01/21 23:41:05;;;;;;;20.73;18.67;;;3.30;99.90;;;;;;10551511;28;20195;-78
2023/01/21 23:46:08;;;;;;;19.50;17.57;;;3.30;99.90;;;;;;10545747;28;20262;-79
2023/01/21 23:51:13;;;;;;;19.97;18.00;;;3.30;99.90;;;;;;10531230;28;20206;-79
2023/01/21 23:56:17;;;;;;;20.43;18.43;;;3.20;99.90;;;;;;10543905;28;20223;-78
